createdAt,value
2022-12-28T00:02:19.263Z,5.01
2022-12-28T00:04:47.098Z,4.90
2022-12-28T00:07:16.194Z,4.88
2022-12-28T00:09:43.860Z,4.80
2022-12-28T00:12:11.515Z,4.90
2022-12-28T00:14:39.073Z,4.85
2022-12-28T00:17:06.977Z,4.80
2022-12-28T00:19:34.600Z,4.72
2022-12-28T00:22:02.091Z,4.61
2022-12-28T00:24:31.177Z,4.69
2022-12-28T00:26:58.936Z,4.71
2022-12-28T00:29:26.571Z,4.75
2022-12-28T00:31:54.242Z,4.67
2022-12-28T00:34:21.792Z,4.74
2022-12-28T00:37:09.269Z,4.81
2022-12-28T00:39:42.378Z,4.87
2022-12-28T00:42:10.804Z,4.92
2022-12-28T00:44:38.468Z,4.95
2022-12-28T00:47:06.210Z,5.13
2022-12-28T00:49:33.969Z,5.11
2022-12-28T00:52:01.518Z,5.03
2022-12-28T00:54:29.216Z,5.03
2022-12-28T00:56:58.052Z,5.06
2022-12-28T00:59:25.568Z,5.09
2022-12-28T01:01:53.228Z,4.99
2022-12-28T01:04:20.828Z,5.15
2022-12-28T01:06:48.419Z,5.16
2022-12-28T01:09:16.001Z,5.33
2022-12-28T01:11:43.540Z,5.37
2022-12-28T01:14:12.536Z,5.28
2022-12-28T01:16:40.432Z,5.28
2022-12-28T01:19:09.150Z,5.23
2022-12-28T01:21:37.247Z,5.15
2022-12-28T01:24:07.741Z,5.08
2022-12-28T01:26:35.525Z,5.19
2022-12-28T01:29:03.383Z,5.19
2022-12-28T01:31:32.925Z,5.00
2022-12-28T01:34:03.252Z,5.12
2022-12-28T01:36:32.777Z,5.18
2022-12-28T01:39:02.877Z,5.18
2022-12-28T01:41:31.880Z,5.33
2022-12-28T01:44:45.155Z,5.25
2022-12-28T01:47:19.485Z,5.32
2022-12-28T01:49:55.412Z,5.31
2022-12-28T01:52:29.082Z,5.30
2022-12-28T01:55:01.408Z,5.43
2022-12-28T01:57:32.682Z,5.50
2022-12-28T02:00:04.923Z,5.56
2022-12-28T02:02:35.777Z,5.60
2022-12-28T02:05:03.935Z,5.56
2022-12-28T02:07:41.142Z,5.53
2022-12-28T02:10:44.538Z,5.43
2022-12-28T02:13:00.156Z,5.38
2022-12-28T02:15:28.772Z,5.40
2022-12-28T02:18:01.693Z,5.50
2022-12-28T02:20:35.059Z,5.50
2022-12-28T02:23:28.517Z,5.47
2022-12-28T02:26:20.364Z,5.46
2022-12-28T02:29:15.034Z,5.58
2022-12-28T02:31:51.702Z,5.56
2022-12-28T02:34:26.988Z,5.51
2022-12-28T02:37:01.677Z,5.62
2022-12-28T02:39:35.107Z,5.72
2022-12-28T02:42:05.286Z,5.78
2022-12-28T02:44:53.646Z,5.76
2022-12-28T02:47:39.173Z,5.86
2022-12-28T02:50:09.529Z,5.80
2022-12-28T02:52:55.052Z,5.76
2022-12-28T02:55:52.302Z,5.67
2022-12-28T02:58:44.721Z,5.68
2022-12-28T03:01:25.266Z,5.75
2022-12-28T03:04:06.176Z,5.88
2022-12-28T03:07:00.737Z,5.69
2022-12-28T03:09:35.090Z,5.53
2022-12-28T03:12:09.691Z,5.42
2022-12-28T03:14:44.581Z,5.56
2022-12-28T03:17:33.256Z,5.65
2022-12-28T03:20:24.068Z,5.50
2022-12-28T03:23:11.488Z,5.63
2022-12-28T03:26:01.192Z,5.64
2022-12-28T03:28:50.004Z,5.39
2022-12-28T03:31:22.333Z,5.45
2022-12-28T03:34:06.692Z,5.48
2022-12-28T03:36:43.527Z,5.47
2022-12-28T03:39:17.615Z,5.44
2022-12-28T03:41:52.092Z,5.45
2022-12-28T03:44:24.652Z,5.55
2022-12-28T03:46:57.307Z,5.66
2022-12-28T03:49:29.454Z,5.70
2022-12-28T03:51:57.830Z,5.57
2022-12-28T03:54:26.254Z,5.68
2022-12-28T03:56:53.786Z,5.66
2022-12-28T03:59:21.450Z,5.86
2022-12-28T04:01:49.515Z,5.87
2022-12-28T04:04:17.188Z,5.76
2022-12-28T04:06:46.078Z,5.81
2022-12-28T04:09:15.771Z,5.95
2022-12-28T04:11:43.358Z,5.96
2022-12-28T04:14:11.475Z,6.02
2022-12-28T04:16:39.501Z,5.92
2022-12-28T04:19:07.085Z,5.81
2022-12-28T04:21:34.677Z,5.77
2022-12-28T04:24:04.068Z,5.85
2022-12-28T04:26:31.754Z,5.88
2022-12-28T04:29:02.005Z,5.93
2022-12-28T04:31:30.709Z,6.00
2022-12-28T04:33:59.513Z,6.06
2022-12-28T04:36:27.204Z,6.25
2022-12-28T04:38:55.157Z,6.19
2022-12-28T04:41:24.134Z,6.18
2022-12-28T04:43:52.369Z,6.23
2022-12-28T04:46:22.361Z,6.22
2022-12-28T04:48:49.879Z,6.19
2022-12-28T04:51:20.258Z,6.14
2022-12-28T04:53:48.449Z,6.27
2022-12-28T04:56:19.088Z,6.17
2022-12-28T04:58:48.979Z,6.31
2022-12-28T05:01:19.755Z,6.22
2022-12-28T05:03:55.092Z,6.36
2022-12-28T05:06:25.116Z,6.25
2022-12-28T05:08:52.770Z,6.33
2022-12-28T05:11:22.142Z,6.30
2022-12-28T05:13:51.560Z,6.22
2022-12-28T05:16:21.866Z,6.32
2022-12-28T05:18:50.278Z,6.36
2022-12-28T05:21:19.758Z,6.38
2022-12-28T05:23:48.937Z,6.32
2022-12-28T05:26:18.889Z,6.37
2022-12-28T05:28:46.858Z,6.40
2022-12-28T05:31:18.418Z,6.43
2022-12-28T05:33:47.787Z,6.41
2022-12-28T05:36:17.494Z,6.48
2022-12-28T05:38:45.757Z,6.57
2022-12-28T05:41:15.470Z,6.68
2022-12-28T05:43:44.151Z,6.71
2022-12-28T05:46:14.696Z,6.68
2022-12-28T05:48:44.136Z,6.73
2022-12-28T05:51:13.897Z,6.71
2022-12-28T05:53:42.192Z,6.75
2022-12-28T05:56:14.668Z,6.83
2022-12-28T05:58:43.201Z,6.72
2022-12-28T06:01:13.081Z,6.81
2022-12-28T06:03:41.535Z,6.81
2022-12-28T06:06:12.921Z,6.84
2022-12-28T06:08:44.790Z,6.89
2022-12-28T06:11:14.816Z,6.88
2022-12-28T06:13:42.561Z,6.86
2022-12-28T06:16:12.520Z,7.01
2022-12-28T06:18:40.284Z,6.95
2022-12-28T06:21:11.574Z,6.87
2022-12-28T06:23:39.447Z,6.85
2022-12-28T06:26:08.791Z,6.88
2022-12-28T06:28:37.891Z,7.06
2022-12-28T06:31:07.301Z,7.08
2022-12-28T06:33:35.628Z,7.04
2022-12-28T06:36:03.518Z,7.06
2022-12-28T06:38:34.369Z,7.06
2022-12-28T06:41:14.110Z,7.05
2022-12-28T06:43:44.045Z,6.94
2022-12-28T06:46:12.498Z,7.02
2022-12-28T06:48:42.893Z,7.04
2022-12-28T06:51:14.124Z,7.06
2022-12-28T06:53:44.875Z,7.02
2022-12-28T06:56:14.826Z,7.01
2022-12-28T06:58:42.761Z,6.86
2022-12-28T07:01:13.603Z,6.89
2022-12-28T07:03:41.721Z,6.93
2022-12-28T07:06:10.075Z,6.96
2022-12-28T07:08:38.283Z,7.08
2022-12-28T07:11:09.696Z,7.04
2022-12-28T07:13:37.669Z,7.00
2022-12-28T07:16:07.646Z,7.04
2022-12-28T07:18:35.408Z,7.02
2022-12-28T07:21:05.545Z,6.86
2022-12-28T07:23:35.617Z,6.86
2022-12-28T07:26:09.637Z,6.73
2022-12-28T07:28:38.369Z,6.81
2022-12-28T07:31:08.166Z,6.71
2022-12-28T07:33:37.291Z,6.79
2022-12-28T07:36:06.603Z,6.79
2022-12-28T07:38:36.062Z,6.75
2022-12-28T07:41:04.946Z,6.70
2022-12-28T07:43:34.533Z,6.85
2022-12-28T07:46:03.540Z,6.80
2022-12-28T07:48:32.383Z,6.86
2022-12-28T07:51:07.812Z,6.73
2022-12-28T07:53:35.749Z,6.69
2022-12-28T07:56:03.915Z,6.81
2022-12-28T07:58:31.518Z,6.83
2022-12-28T08:01:06.944Z,6.96
2022-12-28T08:03:35.291Z,7.04
2022-12-28T08:06:05.185Z,7.03
2022-12-28T08:08:36.002Z,6.91
2022-12-28T08:11:05.506Z,6.93
2022-12-28T08:13:35.004Z,6.93
2022-12-28T08:16:03.405Z,6.95
2022-12-28T08:18:32.978Z,6.93
2022-12-28T08:21:05.715Z,7.03
2022-12-28T08:23:33.947Z,6.96
2022-12-28T08:26:06.865Z,7.01
2022-12-28T08:28:34.699Z,6.95
2022-12-28T08:31:07.435Z,7.08
2022-12-28T08:33:36.631Z,7.19
2022-12-28T08:36:04.351Z,7.28
2022-12-28T08:38:31.994Z,7.14
2022-12-28T08:41:01.023Z,7.20
2022-12-28T08:43:34.081Z,7.24
2022-12-28T08:46:03.623Z,7.36
2022-12-28T08:48:33.065Z,7.44
2022-12-28T08:51:05.621Z,7.56
2022-12-28T08:53:33.534Z,7.58
2022-12-28T08:56:06.792Z,7.56
2022-12-28T08:58:35.198Z,7.72
2022-12-28T09:01:07.427Z,7.78
2022-12-28T09:03:36.745Z,7.98
2022-12-28T09:06:07.174Z,8.20
2022-12-28T09:08:35.151Z,8.15
2022-12-28T09:11:05.401Z,8.19
2022-12-28T09:13:34.024Z,8.10
2022-12-28T09:16:04.022Z,8.12
2022-12-28T09:18:31.935Z,8.29
2022-12-28T09:21:09.861Z,8.29
2022-12-28T09:23:38.771Z,8.19
2022-12-28T09:26:08.020Z,8.12
2022-12-28T09:28:37.121Z,8.24
2022-12-28T09:31:05.749Z,8.35
2022-12-28T09:34:32.075Z,8.57
2022-12-28T09:36:43.084Z,8.76
2022-12-28T09:39:14.036Z,8.76
2022-12-28T09:41:48.132Z,8.66
2022-12-28T09:44:33.103Z,8.89
2022-12-28T09:47:07.152Z,9.04
2022-12-28T09:49:41.875Z,8.93
2022-12-28T09:52:27.490Z,8.86
2022-12-28T09:54:56.044Z,8.69
2022-12-28T09:57:25.582Z,8.91
2022-12-28T09:59:54.139Z,8.98
2022-12-28T10:02:27.468Z,9.35
2022-12-28T10:04:55.433Z,9.35
2022-12-28T10:07:28.764Z,9.48
2022-12-28T10:09:56.451Z,9.65
2022-12-28T10:15:09.292Z,9.76
2022-12-28T10:17:36.943Z,9.73
2022-12-28T10:20:07.983Z,9.35
2022-12-28T10:22:49.878Z,9.53
2022-12-28T10:25:20.517Z,9.36
2022-12-28T10:27:48.687Z,9.52
2022-12-28T10:30:18.748Z,9.53
2022-12-28T10:32:51.814Z,9.54
2022-12-28T10:35:25.551Z,9.51
2022-12-28T10:38:00.740Z,9.59
2022-12-28T10:40:31.469Z,9.62
2022-12-28T10:43:02.096Z,9.76
2022-12-28T10:45:37.355Z,9.68
2022-12-28T10:48:11.018Z,9.31
2022-12-28T10:50:48.714Z,9.41
2022-12-28T10:53:26.827Z,9.57
2022-12-28T10:56:21.841Z,9.44
2022-12-28T10:58:53.781Z,9.44
2022-12-28T11:01:26.947Z,9.38
2022-12-28T11:04:07.370Z,9.27
2022-12-28T11:06:36.715Z,9.38
2022-12-28T11:09:15.498Z,9.19
2022-12-28T11:11:44.487Z,9.14
2022-12-28T11:14:18.632Z,9.30
2022-12-28T11:16:46.291Z,9.39
2022-12-28T11:19:14.322Z,9.47
2022-12-28T11:21:47.403Z,9.65
2022-12-28T11:24:18.529Z,9.78
2022-12-28T11:26:48.914Z,9.92
2022-12-28T11:29:18.700Z,10.07
2022-12-28T11:31:50.549Z,9.90
2022-12-28T11:34:24.293Z,9.82
2022-12-28T11:36:52.573Z,9.89
2022-12-28T11:39:46.228Z,10.14
2022-12-28T11:42:41.819Z,10.32
2022-12-28T11:45:14.312Z,10.32
2022-12-28T11:47:42.032Z,10.05
2022-12-28T11:50:42.174Z,9.91
2022-12-28T11:53:43.892Z,9.90
2022-12-28T11:56:14.061Z,10.15
2022-12-28T11:58:48.552Z,10.46
2022-12-28T12:01:44.428Z,10.32
2022-12-28T12:04:34.245Z,10.34
2022-12-28T12:07:31.581Z,10.34
2022-12-28T12:10:31.661Z,10.21
2022-12-28T12:13:06.895Z,10.02
2022-12-28T12:15:41.387Z,10.07
2022-12-28T12:18:19.190Z,9.89
2022-12-28T12:20:58.606Z,9.94
2022-12-28T12:23:35.203Z,9.98
2022-12-28T12:26:21.029Z,10.14
2022-12-28T12:28:52.705Z,10.18
2022-12-28T12:31:29.613Z,10.23
2022-12-28T12:34:03.559Z,10.32
2022-12-28T12:36:52.993Z,10.17
2022-12-28T12:39:46.826Z,10.15
2022-12-28T12:42:27.360Z,9.83
2022-12-28T12:45:00.267Z,9.76
2022-12-28T12:47:58.745Z,9.69
2022-12-28T12:50:57.581Z,9.69
2022-12-28T12:53:43.130Z,9.53
2022-12-28T12:56:30.464Z,9.57
2022-12-28T12:59:18.526Z,9.56
2022-12-28T13:01:54.924Z,9.35
2022-12-28T13:04:25.441Z,9.52
2022-12-28T13:06:59.992Z,9.33
2022-12-28T13:09:31.867Z,9.48
2022-12-28T13:12:02.796Z,9.57
2022-12-28T13:14:30.997Z,9.50
2022-12-28T13:17:01.711Z,9.45
2022-12-28T13:19:30.748Z,9.49
2022-12-28T13:21:59.610Z,9.45
2022-12-28T13:24:35.980Z,9.40
2022-12-28T13:27:19.771Z,9.40
2022-12-28T13:29:55.041Z,9.41
2022-12-28T13:32:36.043Z,9.56
2022-12-28T13:35:17.959Z,9.50
2022-12-28T13:37:59.757Z,9.49
2022-12-28T13:40:31.333Z,9.54
2022-12-28T13:43:19.144Z,9.58
2022-12-28T13:45:52.205Z,9.56
2022-12-28T13:48:24.555Z,9.62
2022-12-28T13:50:53.391Z,9.68
2022-12-28T13:53:26.335Z,9.74
2022-12-28T13:55:59.389Z,9.63
2022-12-28T13:58:32.878Z,9.79
2022-12-28T14:01:04.374Z,9.67
2022-12-28T14:03:41.430Z,9.64
2022-12-28T14:06:16.230Z,9.68
2022-12-28T14:08:46.773Z,9.67
2022-12-28T14:11:16.017Z,9.67
2022-12-28T14:13:44.036Z,9.65
2022-12-28T14:16:12.168Z,9.76
2022-12-28T14:18:47.591Z,9.62
2022-12-28T14:21:18.061Z,9.68
2022-12-28T14:23:45.891Z,9.76
2022-12-28T14:26:21.688Z,9.66
2022-12-28T14:28:53.726Z,9.66
2022-12-28T14:31:27.813Z,9.67
2022-12-28T14:33:58.628Z,9.57
2022-12-28T14:36:30.861Z,9.64
2022-12-28T14:41:49.873Z,9.62
2022-12-28T14:44:27.529Z,9.65
2022-12-28T14:47:00.035Z,9.66
2022-12-28T14:49:38.106Z,9.62
2022-12-28T14:52:42.908Z,9.62
2022-12-28T14:55:35.544Z,9.73
2022-12-28T14:58:07.254Z,9.57
2022-12-28T15:00:25.117Z,9.72
2022-12-28T15:00:36.363Z,9.62
2022-12-28T15:03:19.855Z,9.56
2022-12-28T15:05:50.914Z,9.56
2022-12-28T15:08:18.832Z,9.51
2022-12-28T15:10:52.178Z,9.58
2022-12-28T15:13:21.000Z,9.54
2022-12-28T15:15:56.480Z,9.67
2022-12-28T15:18:24.479Z,9.57
2022-12-28T15:20:54.655Z,9.54
2022-12-28T15:23:22.886Z,9.55
2022-12-28T15:25:51.198Z,9.58
2022-12-28T15:28:19.254Z,9.59
2022-12-28T15:30:47.303Z,9.46
2022-12-28T15:33:14.958Z,9.59
2022-12-28T15:35:43.247Z,9.41
2022-12-28T15:38:15.091Z,9.59
2022-12-28T15:40:42.845Z,9.60
2022-12-28T15:43:10.466Z,9.53
2022-12-28T15:45:38.440Z,9.53
2022-12-28T15:48:06.690Z,9.59
2022-12-28T15:50:35.172Z,9.61
2022-12-28T15:53:02.694Z,9.49
2022-12-28T15:55:36.383Z,9.48
2022-12-28T15:58:04.120Z,9.37
2022-12-28T16:00:33.908Z,9.42
2022-12-28T16:03:01.947Z,9.41
2022-12-28T16:05:29.867Z,9.40
2022-12-28T16:07:57.679Z,9.37
2022-12-28T16:10:27.355Z,9.43
2022-12-28T16:12:56.737Z,9.39
2022-12-28T16:15:24.302Z,9.31
2022-12-28T16:17:57.249Z,9.33
2022-12-28T16:20:25.649Z,9.15
2022-12-28T16:48:04.551Z,9.35
2022-12-28T16:50:38.180Z,9.35
2022-12-28T16:53:12.921Z,9.51
2022-12-28T16:55:45.382Z,9.58
2022-12-28T16:58:18.124Z,9.63
2022-12-28T17:00:51.089Z,9.52
2022-12-28T17:03:29.096Z,9.51
2022-12-28T17:05:59.034Z,9.61
2022-12-28T17:08:42.708Z,9.54
2022-12-28T17:11:15.912Z,9.37
2022-12-28T17:13:46.652Z,9.36
2022-12-28T17:16:18.349Z,9.49
2022-12-28T17:18:55.887Z,9.37
2022-12-28T17:21:35.999Z,9.42
2022-12-28T17:24:10.207Z,9.52
2022-12-28T17:26:42.674Z,9.49
2022-12-28T17:29:12.847Z,9.34
2022-12-28T17:31:52.488Z,9.45
2022-12-28T17:34:29.842Z,9.50
2022-12-28T17:37:04.981Z,9.44
2022-12-28T17:39:40.540Z,9.52
2022-12-28T17:42:13.547Z,9.55
2022-12-28T17:44:46.121Z,9.51
2022-12-28T17:47:19.556Z,9.55
2022-12-28T17:49:59.406Z,9.49
2022-12-28T17:52:29.616Z,9.39
2022-12-28T17:55:03.523Z,9.40
2022-12-28T17:57:39.850Z,9.51
2022-12-28T18:00:11.702Z,9.46
2022-12-28T18:02:47.676Z,9.46
2022-12-28T18:05:19.122Z,9.52
2022-12-28T18:07:49.179Z,9.39
2022-12-28T18:10:18.337Z,9.31
2022-12-28T18:12:49.717Z,9.18
2022-12-28T18:15:27.343Z,9.12
2022-12-28T18:18:04.762Z,9.19
2022-12-28T18:20:42.832Z,9.32
2022-12-28T18:23:15.287Z,9.21
2022-12-28T18:25:46.180Z,9.09
2022-12-28T18:28:15.529Z,8.99
2022-12-28T18:30:46.038Z,8.99
2022-12-28T18:33:15.164Z,9.10
2022-12-28T18:35:48.898Z,9.01
2022-12-28T18:38:35.364Z,9.01
2022-12-28T18:41:05.439Z,9.06
2022-12-28T18:43:37.038Z,9.09
2022-12-28T18:46:19.486Z,9.12
2022-12-28T18:48:49.906Z,9.20
2022-12-28T18:51:24.780Z,9.36
2022-12-28T18:53:54.951Z,9.35
2022-12-28T18:56:27.159Z,9.33
2022-12-28T18:58:59.235Z,9.32
2022-12-28T19:02:05.184Z,9.36
2022-12-28T19:04:24.928Z,9.34
2022-12-28T19:06:56.147Z,9.36
2022-12-28T19:09:30.229Z,9.51
2022-12-28T19:12:00.343Z,9.51
2022-12-28T19:14:30.293Z,9.45
2022-12-28T19:17:05.526Z,9.51
2022-12-28T19:19:36.428Z,9.57
2022-12-28T19:22:22.448Z,9.41
2022-12-28T19:24:51.456Z,9.44
2022-12-28T19:27:24.628Z,9.34
2022-12-28T19:29:56.069Z,9.28
2022-12-28T19:32:26.546Z,9.31
2022-12-28T19:34:57.434Z,9.34
2022-12-28T19:37:29.862Z,9.41
2022-12-28T19:40:01.038Z,9.47
2022-12-28T19:42:30.113Z,9.44
2022-12-28T19:45:04.869Z,9.52
2022-12-28T19:47:39.257Z,9.64
2022-12-28T19:50:10.155Z,9.56
2022-12-28T19:52:39.762Z,9.56
2022-12-28T19:55:07.844Z,9.59
2022-12-28T19:57:37.297Z,9.53
2022-12-28T20:00:06.178Z,9.45
2022-12-28T20:02:34.051Z,9.50
2022-12-28T20:05:02.164Z,9.44
2022-12-28T20:07:29.993Z,9.41
2022-12-28T20:10:03.134Z,9.46
2022-12-28T20:12:31.077Z,9.49
2022-12-28T20:14:58.801Z,9.47
2022-12-28T20:17:26.397Z,9.52
2022-12-28T20:19:56.674Z,9.47
2022-12-28T20:22:24.402Z,9.45
2022-12-28T20:24:52.376Z,9.54
2022-12-28T20:27:25.842Z,9.57
2022-12-28T20:29:54.574Z,9.58
2022-12-28T20:32:22.211Z,9.53
2022-12-28T20:34:50.054Z,9.55
2022-12-28T20:37:17.750Z,9.59
2022-12-28T20:39:45.427Z,9.57
2022-12-28T20:42:32.444Z,9.59
2022-12-28T20:45:01.407Z,9.56
2022-12-28T20:47:28.953Z,9.70
2022-12-28T20:49:56.947Z,9.62
2022-12-28T20:52:24.629Z,9.63
2022-12-28T20:54:52.209Z,9.63
2022-12-28T20:57:20.039Z,9.70
2022-12-28T20:59:47.611Z,9.74
2022-12-28T21:02:17.082Z,9.67
2022-12-28T21:04:44.714Z,9.78
2022-12-28T21:07:12.458Z,9.71
2022-12-28T21:09:41.144Z,9.78
2022-12-28T21:12:08.911Z,9.74
2022-12-28T21:14:36.461Z,9.77
2022-12-28T21:17:04.115Z,9.89
2022-12-28T21:19:33.039Z,9.79
2022-12-28T21:22:00.778Z,9.77
2022-12-28T21:24:28.451Z,9.81
2022-12-28T21:26:56.097Z,9.77
2022-12-28T21:29:26.007Z,9.84
2022-12-28T21:31:54.195Z,9.83
2022-12-28T21:34:22.427Z,9.72
2022-12-28T21:36:54.060Z,9.75
2022-12-28T21:39:22.995Z,9.69
2022-12-28T21:41:50.865Z,9.68
2022-12-28T21:44:21.918Z,9.62
2022-12-28T21:46:51.086Z,9.61
2022-12-28T21:49:19.358Z,9.64
2022-12-28T21:51:47.103Z,9.65
2022-12-28T21:54:18.343Z,9.70
2022-12-28T21:56:48.010Z,9.80
2022-12-28T21:59:15.850Z,9.81
2022-12-28T22:02:01.469Z,9.90
2022-12-28T22:04:47.415Z,9.88
2022-12-28T22:07:24.303Z,9.89
2022-12-28T22:10:10.852Z,9.80
2022-12-28T22:12:38.981Z,9.82
2022-12-28T22:15:27.614Z,9.86
2022-12-28T22:18:12.774Z,9.90
2022-12-28T22:20:48.366Z,9.89
2022-12-28T22:23:18.391Z,9.89
2022-12-28T22:25:49.631Z,9.95
2022-12-28T22:28:18.511Z,9.90
2022-12-28T22:30:47.633Z,9.88
2022-12-28T22:33:16.407Z,9.79
2022-12-28T22:35:47.927Z,9.82
2022-12-28T22:38:16.864Z,9.83
2022-12-28T22:40:45.595Z,9.85
2022-12-28T22:43:15.819Z,10.07
2022-12-28T22:46:17.853Z,10.09
2022-12-28T22:48:47.332Z,10.03
2022-12-28T22:51:18.277Z,9.99
2022-12-28T22:53:48.262Z,10.02
2022-12-28T22:56:21.301Z,10.03
2022-12-28T22:58:52.492Z,10.05
2022-12-28T23:01:21.998Z,10.10
2022-12-28T23:03:52.214Z,10.04
2022-12-28T23:06:22.029Z,9.96
2022-12-28T23:08:50.948Z,10.01
2022-12-28T23:11:37.131Z,9.98
2022-12-28T23:14:26.516Z,10.07
2022-12-28T23:16:55.230Z,10.09
2022-12-28T23:19:41.058Z,10.12
2022-12-28T23:22:27.032Z,10.14
2022-12-28T23:25:13.142Z,10.20
2022-12-28T23:27:43.753Z,10.22
2022-12-28T23:30:17.757Z,10.22
2022-12-28T23:32:46.110Z,10.30
2022-12-28T23:35:15.363Z,10.35
2022-12-28T23:37:45.928Z,10.34
2022-12-28T23:40:18.817Z,10.36
2022-12-28T23:42:48.152Z,10.50
2022-12-28T23:45:19.580Z,10.50
2022-12-28T23:47:48.391Z,10.58
2022-12-28T23:50:17.805Z,10.54
2022-12-28T23:52:45.729Z,10.64
2022-12-28T23:55:34.141Z,10.66
2022-12-28T23:58:01.716Z,10.65
